sensor_id;sensor_type;location;lat;lon;timestamp;temperature;humidity
12477;DHT22;6303;51.504;6.300;2023-03-26T00:01:26;22.00;51.30
12477;DHT22;6303;51.504;6.300;2023-03-26T00:03:54;22.00;51.90
12477;DHT22;6303;51.504;6.300;2023-03-26T00:06:26;22.00;51.30
12477;DHT22;6303;51.504;6.300;2023-03-26T00:08:55;22.00;51.30
12477;DHT22;6303;51.504;6.300;2023-03-26T00:11:24;22.00;51.40
12477;DHT22;6303;51.504;6.300;2023-03-26T00:13:52;22.00;51.30
12477;DHT22;6303;51.504;6.300;2023-03-26T00:16:22;22.00;51.30
12477;DHT22;6303;51.504;6.300;2023-03-26T00:18:49;22.00;51.30
12477;DHT22;6303;51.504;6.300;2023-03-26T00:21:20;22.00;51.30
12477;DHT22;6303;51.504;6.300;2023-03-26T00:23:52;22.00;51.30
12477;DHT22;6303;51.504;6.300;2023-03-26T00:26:20;22.00;51.40
12477;DHT22;6303;51.504;6.300;2023-03-26T00:28:47;22.00;51.30
12477;DHT22;6303;51.504;6.300;2023-03-26T00:31:16;22.00;51.30
12477;DHT22;6303;51.504;6.300;2023-03-26T00:33:43;22.00;51.30
12477;DHT22;6303;51.504;6.300;2023-03-26T00:36:12;22.00;51.30
12477;DHT22;6303;51.504;6.300;2023-03-26T00:38:41;22.00;51.30
12477;DHT22;6303;51.504;6.300;2023-03-26T00:41:12;22.00;51.30
12477;DHT22;6303;51.504;6.300;2023-03-26T00:43:48;22.00;51.40
12477;DHT22;6303;51.504;6.300;2023-03-26T00:46:16;22.00;51.40
12477;DHT22;6303;51.504;6.300;2023-03-26T00:48:44;22.00;51.40
12477;DHT22;6303;51.504;6.300;2023-03-26T00:51:12;22.00;51.40
12477;DHT22;6303;51.504;6.300;2023-03-26T00:53:40;21.90;51.40
12477;DHT22;6303;51.504;6.300;2023-03-26T00:56:10;21.90;51.40
12477;DHT22;6303;51.504;6.300;2023-03-26T00:58:37;22.00;51.40
12477;DHT22;6303;51.504;6.300;2023-03-26T01:01:07;22.00;51.40
12477;DHT22;6303;51.504;6.300;2023-03-26T01:03:36;21.90;51.40
12477;DHT22;6303;51.504;6.300;2023-03-26T01:08:48;21.90;51.40
12477;DHT22;6303;51.504;6.300;2023-03-26T01:11:20;21.90;51.40
12477;DHT22;6303;51.504;6.300;2023-03-26T01:13:50;21.90;51.40
12477;DHT22;6303;51.504;6.300;2023-03-26T01:16:22;21.90;51.40
12477;DHT22;6303;51.504;6.300;2023-03-26T01:18:50;21.90;51.40
12477;DHT22;6303;51.504;6.300;2023-03-26T01:21:21;21.90;51.40
12477;DHT22;6303;51.504;6.300;2023-03-26T01:23:59;21.90;51.40
12477;DHT22;6303;51.504;6.300;2023-03-26T01:26:47;21.90;51.40
12477;DHT22;6303;51.504;6.300;2023-03-26T01:29:20;21.90;51.40
12477;DHT22;6303;51.504;6.300;2023-03-26T01:31:55;21.90;51.40
12477;DHT22;6303;51.504;6.300;2023-03-26T01:34:32;21.90;51.40
12477;DHT22;6303;51.504;6.300;2023-03-26T01:37:11;21.90;51.40
12477;DHT22;6303;51.504;6.300;2023-03-26T01:39:49;21.90;51.40
12477;DHT22;6303;51.504;6.300;2023-03-26T01:42:23;21.90;51.40
12477;DHT22;6303;51.504;6.300;2023-03-26T01:44:55;21.90;51.40
12477;DHT22;6303;51.504;6.300;2023-03-26T01:47:23;21.90;51.40
12477;DHT22;6303;51.504;6.300;2023-03-26T01:49:51;21.90;51.40
12477;DHT22;6303;51.504;6.300;2023-03-26T01:52:20;21.90;51.40
12477;DHT22;6303;51.504;6.300;2023-03-26T01:54:51;21.90;51.50
12477;DHT22;6303;51.504;6.300;2023-03-26T01:57:26;21.90;51.40
12477;DHT22;6303;51.504;6.300;2023-03-26T02:02:57;21.90;51.40
12477;DHT22;6303;51.504;6.300;2023-03-26T02:05:30;21.90;51.40
12477;DHT22;6303;51.504;6.300;2023-03-26T02:08:07;21.90;51.40
12477;DHT22;6303;51.504;6.300;2023-03-26T02:10:41;21.90;51.40
12477;DHT22;6303;51.504;6.300;2023-03-26T02:13:10;21.90;51.40
12477;DHT22;6303;51.504;6.300;2023-03-26T02:15:38;21.90;51.40
12477;DHT22;6303;51.504;6.300;2023-03-26T02:18:05;21.90;51.40
12477;DHT22;6303;51.504;6.300;2023-03-26T02:20:35;21.90;51.40
12477;DHT22;6303;51.504;6.300;2023-03-26T02:23:02;21.90;51.40
12477;DHT22;6303;51.504;6.300;2023-03-26T02:25:30;21.90;51.40
12477;DHT22;6303;51.504;6.300;2023-03-26T02:28:01;21.80;51.40
12477;DHT22;6303;51.504;6.300;2023-03-26T02:30:29;21.90;51.40
12477;DHT22;6303;51.504;6.300;2023-03-26T02:32:59;21.80;51.40
12477;DHT22;6303;51.504;6.300;2023-03-26T02:35:34;21.80;51.40
12477;DHT22;6303;51.504;6.300;2023-03-26T02:38:02;21.80;51.50
12477;DHT22;6303;51.504;6.300;2023-03-26T02:40:30;21.80;51.40
12477;DHT22;6303;51.504;6.300;2023-03-26T02:42:57;21.90;51.40
12477;DHT22;6303;51.504;6.300;2023-03-26T02:45:28;21.80;51.40
12477;DHT22;6303;51.504;6.300;2023-03-26T02:48:05;21.80;51.30
12477;DHT22;6303;51.504;6.300;2023-03-26T02:50:54;21.90;51.40
12477;DHT22;6303;51.504;6.300;2023-03-26T02:53:40;21.90;51.40
12477;DHT22;6303;51.504;6.300;2023-03-26T02:56:40;21.80;51.30
12477;DHT22;6303;51.504;6.300;2023-03-26T02:59:24;21.90;51.40
12477;DHT22;6303;51.504;6.300;2023-03-26T03:02:13;21.80;51.40
12477;DHT22;6303;51.504;6.300;2023-03-26T03:04:40;21.80;51.40
12477;DHT22;6303;51.504;6.300;2023-03-26T03:07:08;21.80;51.40
12477;DHT22;6303;51.504;6.300;2023-03-26T03:09:39;21.80;51.40
12477;DHT22;6303;51.504;6.300;2023-03-26T03:12:38;21.80;51.40
12477;DHT22;6303;51.504;6.300;2023-03-26T03:15:07;21.80;51.40
12477;DHT22;6303;51.504;6.300;2023-03-26T03:17:36;21.80;51.40
12477;DHT22;6303;51.504;6.300;2023-03-26T03:20:03;21.80;51.40
12477;DHT22;6303;51.504;6.300;2023-03-26T03:22:34;21.80;51.40
12477;DHT22;6303;51.504;6.300;2023-03-26T03:25:01;21.80;51.30
12477;DHT22;6303;51.504;6.300;2023-03-26T03:27:28;21.80;51.40
12477;DHT22;6303;51.504;6.300;2023-03-26T03:30:05;21.80;51.40
12477;DHT22;6303;51.504;6.300;2023-03-26T03:32:46;21.80;51.40
12477;DHT22;6303;51.504;6.300;2023-03-26T03:35:18;21.80;51.40
12477;DHT22;6303;51.504;6.300;2023-03-26T03:37:48;21.80;51.50
12477;DHT22;6303;51.504;6.300;2023-03-26T03:40:15;21.80;51.50
12477;DHT22;6303;51.504;6.300;2023-03-26T03:42:44;21.70;51.50
12477;DHT22;6303;51.504;6.300;2023-03-26T03:45:13;21.70;51.50
12477;DHT22;6303;51.504;6.300;2023-03-26T03:47:57;21.70;51.60
12477;DHT22;6303;51.504;6.300;2023-03-26T03:50:32;21.70;51.60
12477;DHT22;6303;51.504;6.300;2023-03-26T03:53:19;21.70;51.60
12477;DHT22;6303;51.504;6.300;2023-03-26T03:55:49;21.70;51.60
12477;DHT22;6303;51.504;6.300;2023-03-26T03:58:20;21.70;51.60
12477;DHT22;6303;51.504;6.300;2023-03-26T04:00:50;21.70;51.60
12477;DHT22;6303;51.504;6.300;2023-03-26T04:03:43;21.70;51.70
12477;DHT22;6303;51.504;6.300;2023-03-26T04:06:12;21.70;51.60
12477;DHT22;6303;51.504;6.300;2023-03-26T04:08:45;21.70;51.60
12477;DHT22;6303;51.504;6.300;2023-03-26T04:11:12;21.70;51.60
12477;DHT22;6303;51.504;6.300;2023-03-26T04:13:58;21.70;51.70
12477;DHT22;6303;51.504;6.300;2023-03-26T04:16:38;21.70;51.60
12477;DHT22;6303;51.504;6.300;2023-03-26T04:19:07;21.70;51.70
12477;DHT22;6303;51.504;6.300;2023-03-26T04:21:34;21.70;51.70
12477;DHT22;6303;51.504;6.300;2023-03-26T04:24:03;21.70;51.80
12477;DHT22;6303;51.504;6.300;2023-03-26T04:26:49;21.60;51.70
12477;DHT22;6303;51.504;6.300;2023-03-26T04:29:19;21.70;51.80
12477;DHT22;6303;51.504;6.300;2023-03-26T04:31:54;21.70;51.80
12477;DHT22;6303;51.504;6.300;2023-03-26T04:34:25;21.70;51.70
12477;DHT22;6303;51.504;6.300;2023-03-26T04:37:04;21.70;51.80
12477;DHT22;6303;51.504;6.300;2023-03-26T04:39:38;21.70;51.80
12477;DHT22;6303;51.504;6.300;2023-03-26T04:42:24;21.70;51.80
12477;DHT22;6303;51.504;6.300;2023-03-26T04:45:06;21.70;51.70
12477;DHT22;6303;51.504;6.300;2023-03-26T04:47:33;21.70;51.80
12477;DHT22;6303;51.504;6.300;2023-03-26T04:50:08;21.70;51.80
12477;DHT22;6303;51.504;6.300;2023-03-26T04:52:39;21.70;51.80
12477;DHT22;6303;51.504;6.300;2023-03-26T04:55:33;21.70;51.80
12477;DHT22;6303;51.504;6.300;2023-03-26T04:58:09;21.70;51.80
12477;DHT22;6303;51.504;6.300;2023-03-26T05:00:55;21.70;51.80
12477;DHT22;6303;51.504;6.300;2023-03-26T05:03:26;21.70;51.90
12477;DHT22;6303;51.504;6.300;2023-03-26T05:05:58;21.70;51.90
12477;DHT22;6303;51.504;6.300;2023-03-26T05:08:27;21.70;52.10
12477;DHT22;6303;51.504;6.300;2023-03-26T05:10:55;21.70;51.80
12477;DHT22;6303;51.504;6.300;2023-03-26T05:13:29;21.60;51.90
12477;DHT22;6303;51.504;6.300;2023-03-26T05:16:01;21.70;52.00
12477;DHT22;6303;51.504;6.300;2023-03-26T05:18:40;21.70;52.00
12477;DHT22;6303;51.504;6.300;2023-03-26T05:21:09;21.70;52.00
12477;DHT22;6303;51.504;6.300;2023-03-26T05:23:38;21.70;52.00
12477;DHT22;6303;51.504;6.300;2023-03-26T05:26:16;21.70;52.00
12477;DHT22;6303;51.504;6.300;2023-03-26T05:28:43;21.70;51.90
12477;DHT22;6303;51.504;6.300;2023-03-26T05:31:17;21.70;51.90
12477;DHT22;6303;51.504;6.300;2023-03-26T05:33:48;21.70;51.90
12477;DHT22;6303;51.504;6.300;2023-03-26T05:36:17;21.70;51.90
12477;DHT22;6303;51.504;6.300;2023-03-26T05:38:48;21.70;51.90
12477;DHT22;6303;51.504;6.300;2023-03-26T05:41:51;21.70;51.90
12477;DHT22;6303;51.504;6.300;2023-03-26T05:44:19;21.70;51.90
12477;DHT22;6303;51.504;6.300;2023-03-26T05:46:46;21.70;51.90
12477;DHT22;6303;51.504;6.300;2023-03-26T05:49:19;21.70;51.90
12477;DHT22;6303;51.504;6.300;2023-03-26T05:51:48;21.70;51.90
12477;DHT22;6303;51.504;6.300;2023-03-26T05:54:36;21.70;51.90
12477;DHT22;6303;51.504;6.300;2023-03-26T05:57:21;21.70;51.90
12477;DHT22;6303;51.504;6.300;2023-03-26T06:00:12;21.70;51.90
12477;DHT22;6303;51.504;6.300;2023-03-26T06:02:42;21.70;51.90
12477;DHT22;6303;51.504;6.300;2023-03-26T06:05:31;21.70;51.90
12477;DHT22;6303;51.504;6.300;2023-03-26T06:08:19;21.70;51.90
12477;DHT22;6303;51.504;6.300;2023-03-26T06:10:57;21.70;51.90
12477;DHT22;6303;51.504;6.300;2023-03-26T06:13:24;21.70;52.00
12477;DHT22;6303;51.504;6.300;2023-03-26T06:15:52;21.80;52.00
12477;DHT22;6303;51.504;6.300;2023-03-26T06:18:34;21.80;51.90
12477;DHT22;6303;51.504;6.300;2023-03-26T06:21:22;21.80;51.90
12477;DHT22;6303;51.504;6.300;2023-03-26T06:23:56;21.80;51.90
12477;DHT22;6303;51.504;6.300;2023-03-26T06:26:41;21.80;51.90
12477;DHT22;6303;51.504;6.300;2023-03-26T06:29:19;21.80;51.80
12477;DHT22;6303;51.504;6.300;2023-03-26T06:31:54;21.80;51.90
12477;DHT22;6303;51.504;6.300;2023-03-26T06:34:31;21.80;51.80
12477;DHT22;6303;51.504;6.300;2023-03-26T06:36:58;21.80;51.90
12477;DHT22;6303;51.504;6.300;2023-03-26T06:39:27;21.80;51.90
12477;DHT22;6303;51.504;6.300;2023-03-26T06:42:26;21.80;51.90
12477;DHT22;6303;51.504;6.300;2023-03-26T06:45:22;21.80;52.00
12477;DHT22;6303;51.504;6.300;2023-03-26T06:48:12;21.80;52.00
12477;DHT22;6303;51.504;6.300;2023-03-26T06:50:47;21.80;52.00
12477;DHT22;6303;51.504;6.300;2023-03-26T06:53:40;21.80;52.10
12477;DHT22;6303;51.504;6.300;2023-03-26T06:56:17;21.80;52.30
12477;DHT22;6303;51.504;6.300;2023-03-26T06:59:03;21.90;52.50
12477;DHT22;6303;51.504;6.300;2023-03-26T07:01:30;21.90;52.50
12477;DHT22;6303;51.504;6.300;2023-03-26T07:04:16;22.00;52.70
12477;DHT22;6303;51.504;6.300;2023-03-26T07:07:01;22.00;52.80
12477;DHT22;6303;51.504;6.300;2023-03-26T07:12:36;22.00;53.40
12477;DHT22;6303;51.504;6.300;2023-03-26T07:15:38;22.00;53.70
12477;DHT22;6303;51.504;6.300;2023-03-26T07:18:20;22.10;53.80
12477;DHT22;6303;51.504;6.300;2023-03-26T07:20:51;22.10;54.00
12477;DHT22;6303;51.504;6.300;2023-03-26T07:23:20;22.10;54.10
12477;DHT22;6303;51.504;6.300;2023-03-26T07:26:33;22.20;54.30
12477;DHT22;6303;51.504;6.300;2023-03-26T07:29:19;22.20;54.40
12477;DHT22;6303;51.504;6.300;2023-03-26T07:32:21;22.30;54.60
12477;DHT22;6303;51.504;6.300;2023-03-26T07:34:55;22.30;54.70
12477;DHT22;6303;51.504;6.300;2023-03-26T07:37:37;22.30;54.70
12477;DHT22;6303;51.504;6.300;2023-03-26T07:40:46;22.40;54.80
12477;DHT22;6303;51.504;6.300;2023-03-26T07:43:48;22.40;55.00
12477;DHT22;6303;51.504;6.300;2023-03-26T07:46:30;22.40;55.10
12477;DHT22;6303;51.504;6.300;2023-03-26T07:49:17;22.50;54.70
12477;DHT22;6303;51.504;6.300;2023-03-26T07:52:09;22.50;54.00
12477;DHT22;6303;51.504;6.300;2023-03-26T07:54:52;22.50;53.50
12477;DHT22;6303;51.504;6.300;2023-03-26T07:57:57;22.50;52.70
12477;DHT22;6303;51.504;6.300;2023-03-26T08:01:05;22.50;52.40
12477;DHT22;6303;51.504;6.300;2023-03-26T08:07:00;22.40;52.00
12477;DHT22;6303;51.504;6.300;2023-03-26T08:10:01;22.40;51.90
12477;DHT22;6303;51.504;6.300;2023-03-26T08:12:57;22.40;51.80
12477;DHT22;6303;51.504;6.300;2023-03-26T08:15:29;22.40;51.80
12477;DHT22;6303;51.504;6.300;2023-03-26T08:18:02;22.40;51.60
12477;DHT22;6303;51.504;6.300;2023-03-26T08:20:36;22.40;51.60
12477;DHT22;6303;51.504;6.300;2023-03-26T08:23:16;22.90;51.80
12477;DHT22;6303;51.504;6.300;2023-03-26T08:25:56;22.40;51.60
12477;DHT22;6303;51.504;6.300;2023-03-26T08:28:36;22.40;51.60
12477;DHT22;6303;51.504;6.300;2023-03-26T08:31:09;22.40;51.50
12477;DHT22;6303;51.504;6.300;2023-03-26T08:33:38;22.40;51.50
12477;DHT22;6303;51.504;6.300;2023-03-26T08:36:07;22.40;51.50
12477;DHT22;6303;51.504;6.300;2023-03-26T08:38:36;22.40;51.50
12477;DHT22;6303;51.504;6.300;2023-03-26T08:41:34;22.40;51.60
12477;DHT22;6303;51.504;6.300;2023-03-26T08:44:28;22.40;51.60
12477;DHT22;6303;51.504;6.300;2023-03-26T08:47:20;22.40;51.60
12477;DHT22;6303;51.504;6.300;2023-03-26T08:50:18;22.40;51.60
12477;DHT22;6303;51.504;6.300;2023-03-26T08:55:51;22.40;51.60
12477;DHT22;6303;51.504;6.300;2023-03-26T08:59:03;22.40;51.60
12477;DHT22;6303;51.504;6.300;2023-03-26T09:01:56;22.40;51.60
12477;DHT22;6303;51.504;6.300;2023-03-26T09:05:24;22.40;51.60
12477;DHT22;6303;51.504;6.300;2023-03-26T09:08:23;22.40;51.70
12477;DHT22;6303;51.504;6.300;2023-03-26T09:11:11;22.30;51.70
12477;DHT22;6303;51.504;6.300;2023-03-26T09:14:12;22.30;51.70
12477;DHT22;6303;51.504;6.300;2023-03-26T09:17:02;22.30;51.70
12477;DHT22;6303;51.504;6.300;2023-03-26T09:20:06;22.30;51.70
12477;DHT22;6303;51.504;6.300;2023-03-26T09:26:02;22.30;51.70
12477;DHT22;6303;51.504;6.300;2023-03-26T09:28:54;22.30;51.70
12477;DHT22;6303;51.504;6.300;2023-03-26T09:34:33;22.30;51.70
12477;DHT22;6303;51.504;6.300;2023-03-26T09:37:16;22.30;51.70
12477;DHT22;6303;51.504;6.300;2023-03-26T09:39:58;22.30;51.70
12477;DHT22;6303;51.504;6.300;2023-03-26T09:42:39;22.30;51.70
12477;DHT22;6303;51.504;6.300;2023-03-26T09:45:35;22.30;51.80
12477;DHT22;6303;51.504;6.300;2023-03-26T09:48:35;22.30;51.70
12477;DHT22;6303;51.504;6.300;2023-03-26T09:51:37;22.30;51.70
12477;DHT22;6303;51.504;6.300;2023-03-26T09:57:28;22.30;51.70
12477;DHT22;6303;51.504;6.300;2023-03-26T10:00:16;22.30;51.70
12477;DHT22;6303;51.504;6.300;2023-03-26T10:03:02;22.30;51.70
12477;DHT22;6303;51.504;6.300;2023-03-26T10:05:51;22.30;51.70
12477;DHT22;6303;51.504;6.300;2023-03-26T10:08:46;22.30;51.70
12477;DHT22;6303;51.504;6.300;2023-03-26T10:11:22;22.30;51.80
12477;DHT22;6303;51.504;6.300;2023-03-26T10:14:02;22.30;51.80
12477;DHT22;6303;51.504;6.300;2023-03-26T10:16:40;22.30;51.80
12477;DHT22;6303;51.504;6.300;2023-03-26T10:19:30;22.30;51.70
12477;DHT22;6303;51.504;6.300;2023-03-26T10:22:10;22.30;51.70
12477;DHT22;6303;51.504;6.300;2023-03-26T10:27:43;22.30;51.60
12477;DHT22;6303;51.504;6.300;2023-03-26T10:30:28;22.30;51.60
12477;DHT22;6303;51.504;6.300;2023-03-26T10:33:08;22.30;51.70
12477;DHT22;6303;51.504;6.300;2023-03-26T10:35:46;22.30;51.70
12477;DHT22;6303;51.504;6.300;2023-03-26T10:38:23;22.30;51.70
12477;DHT22;6303;51.504;6.300;2023-03-26T10:41:01;22.30;51.60
12477;DHT22;6303;51.504;6.300;2023-03-26T10:43:53;22.30;51.80
12477;DHT22;6303;51.504;6.300;2023-03-26T10:46:37;22.30;51.70
12477;DHT22;6303;51.504;6.300;2023-03-26T10:49:25;22.30;51.70
12477;DHT22;6303;51.504;6.300;2023-03-26T10:51:58;22.20;51.50
12477;DHT22;6303;51.504;6.300;2023-03-26T10:54:36;22.30;51.60
12477;DHT22;6303;51.504;6.300;2023-03-26T10:57:11;22.30;51.60
12477;DHT22;6303;51.504;6.300;2023-03-26T10:59:45;22.40;51.60
12477;DHT22;6303;51.504;6.300;2023-03-26T11:02:25;22.40;51.70
12477;DHT22;6303;51.504;6.300;2023-03-26T11:05:02;22.40;51.60
12477;DHT22;6303;51.504;6.300;2023-03-26T11:07:35;22.40;51.50
12477;DHT22;6303;51.504;6.300;2023-03-26T11:10:07;22.40;51.50
12477;DHT22;6303;51.504;6.300;2023-03-26T11:12:42;22.40;51.50
12477;DHT22;6303;51.504;6.300;2023-03-26T11:15:18;22.40;51.50
12477;DHT22;6303;51.504;6.300;2023-03-26T11:17:54;22.40;51.40
12477;DHT22;6303;51.504;6.300;2023-03-26T11:20:33;22.40;51.50
12477;DHT22;6303;51.504;6.300;2023-03-26T11:23:13;22.40;51.50
12477;DHT22;6303;51.504;6.300;2023-03-26T11:26:04;21.60;51.10
12477;DHT22;6303;51.504;6.300;2023-03-26T11:28:47;22.40;51.50
12477;DHT22;6303;51.504;6.300;2023-03-26T11:31:24;22.40;51.40
12477;DHT22;6303;51.504;6.300;2023-03-26T11:33:56;22.40;51.40
12477;DHT22;6303;51.504;6.300;2023-03-26T11:36:29;22.50;51.40
12477;DHT22;6303;51.504;6.300;2023-03-26T11:38:59;22.50;51.40
12477;DHT22;6303;51.504;6.300;2023-03-26T11:41:31;22.50;51.50
12477;DHT22;6303;51.504;6.300;2023-03-26T11:44:23;22.50;51.30
12477;DHT22;6303;51.504;6.300;2023-03-26T11:46:56;22.60;51.30
12477;DHT22;6303;51.504;6.300;2023-03-26T11:49:26;22.60;51.30
12477;DHT22;6303;51.504;6.300;2023-03-26T11:51:55;22.60;51.20
12477;DHT22;6303;51.504;6.300;2023-03-26T11:54:24;22.60;51.70
12477;DHT22;6303;51.504;6.300;2023-03-26T11:56:53;22.60;51.10
12477;DHT22;6303;51.504;6.300;2023-03-26T11:59:26;22.70;51.10
12477;DHT22;6303;51.504;6.300;2023-03-26T12:01:56;22.70;51.10
12477;DHT22;6303;51.504;6.300;2023-03-26T12:04:25;22.70;51.00
12477;DHT22;6303;51.504;6.300;2023-03-26T12:06:57;22.70;51.00
12477;DHT22;6303;51.504;6.300;2023-03-26T12:09:24;22.70;51.00
12477;DHT22;6303;51.504;6.300;2023-03-26T12:11:55;22.80;50.90
12477;DHT22;6303;51.504;6.300;2023-03-26T12:14:27;22.80;50.90
12477;DHT22;6303;51.504;6.300;2023-03-26T12:17:03;22.80;50.90
12477;DHT22;6303;51.504;6.300;2023-03-26T12:19:35;22.80;50.80
12477;DHT22;6303;51.504;6.300;2023-03-26T12:22:11;22.70;50.70
12477;DHT22;6303;51.504;6.300;2023-03-26T12:25:01;22.90;50.70
12477;DHT22;6303;51.504;6.300;2023-03-26T12:27:28;22.90;51.30
12477;DHT22;6303;51.504;6.300;2023-03-26T12:29:58;22.90;50.60
12477;DHT22;6303;51.504;6.300;2023-03-26T12:32:30;22.90;50.60
12477;DHT22;6303;51.504;6.300;2023-03-26T12:35:03;22.90;50.60
12477;DHT22;6303;51.504;6.300;2023-03-26T12:37:35;23.00;50.60
12477;DHT22;6303;51.504;6.300;2023-03-26T12:40:25;23.00;50.50
12477;DHT22;6303;51.504;6.300;2023-03-26T12:42:54;23.00;50.40
12477;DHT22;6303;51.504;6.300;2023-03-26T12:45:27;23.10;50.50
12477;DHT22;6303;51.504;6.300;2023-03-26T12:47:55;23.10;50.30
12477;DHT22;6303;51.504;6.300;2023-03-26T12:50:28;23.10;50.40
12477;DHT22;6303;51.504;6.300;2023-03-26T12:53:17;23.10;50.20
12477;DHT22;6303;51.504;6.300;2023-03-26T12:55:56;23.10;50.20
12477;DHT22;6303;51.504;6.300;2023-03-26T12:58:44;23.10;50.20
12477;DHT22;6303;51.504;6.300;2023-03-26T13:01:24;23.10;50.20
12477;DHT22;6303;51.504;6.300;2023-03-26T13:04:10;23.10;50.10
12477;DHT22;6303;51.504;6.300;2023-03-26T13:06:40;23.10;50.20
12477;DHT22;6303;51.504;6.300;2023-03-26T13:12:33;23.10;50.10
12477;DHT22;6303;51.504;6.300;2023-03-26T13:15:16;23.10;50.10
12477;DHT22;6303;51.504;6.300;2023-03-26T13:17:50;23.10;50.10
12477;DHT22;6303;51.504;6.300;2023-03-26T13:20:26;23.10;50.10
12477;DHT22;6303;51.504;6.300;2023-03-26T13:23:02;23.00;50.30
12477;DHT22;6303;51.504;6.300;2023-03-26T13:25:38;22.10;49.90
12477;DHT22;6303;51.504;6.300;2023-03-26T13:28:16;22.90;50.40
12477;DHT22;6303;51.504;6.300;2023-03-26T13:30:56;22.90;50.50
12477;DHT22;6303;51.504;6.300;2023-03-26T13:33:37;22.90;50.60
12477;DHT22;6303;51.504;6.300;2023-03-26T13:36:09;22.90;50.70
12477;DHT22;6303;51.504;6.300;2023-03-26T13:38:47;22.80;50.70
12477;DHT22;6303;51.504;6.300;2023-03-26T13:41:26;22.80;50.70
12477;DHT22;6303;51.504;6.300;2023-03-26T13:44:03;22.80;50.80
12477;DHT22;6303;51.504;6.300;2023-03-26T13:46:34;22.80;50.80
12477;DHT22;6303;51.504;6.300;2023-03-26T13:49:07;22.80;50.90
12477;DHT22;6303;51.504;6.300;2023-03-26T13:51:40;22.80;51.00
12477;DHT22;6303;51.504;6.300;2023-03-26T13:54:15;22.80;51.10
12477;DHT22;6303;51.504;6.300;2023-03-26T13:56:48;22.80;51.20
12477;DHT22;6303;51.504;6.300;2023-03-26T13:59:20;22.80;51.30
12477;DHT22;6303;51.504;6.300;2023-03-26T14:01:51;22.80;51.60
12477;DHT22;6303;51.504;6.300;2023-03-26T14:04:23;22.60;51.30
12477;DHT22;6303;51.504;6.300;2023-03-26T14:06:55;22.80;51.30
12477;DHT22;6303;51.504;6.300;2023-03-26T14:09:29;22.80;51.30
12477;DHT22;6303;51.504;6.300;2023-03-26T14:17:49;22.80;51.30
12477;DHT22;6303;51.504;6.300;2023-03-26T14:23:47;22.80;51.30
12477;DHT22;6303;51.504;6.300;2023-03-26T14:26:30;22.80;51.30
12477;DHT22;6303;51.504;6.300;2023-03-26T14:29:27;22.80;51.30
12477;DHT22;6303;51.504;6.300;2023-03-26T14:32:04;22.80;51.40
12477;DHT22;6303;51.504;6.300;2023-03-26T14:34:41;22.80;51.50
12477;DHT22;6303;51.504;6.300;2023-03-26T14:40:29;22.80;51.70
12477;DHT22;6303;51.504;6.300;2023-03-26T14:43:15;22.80;51.80
12477;DHT22;6303;51.504;6.300;2023-03-26T14:46:05;22.70;51.80
12477;DHT22;6303;51.504;6.300;2023-03-26T14:51:52;22.80;51.90
12477;DHT22;6303;51.504;6.300;2023-03-26T14:54:25;22.80;51.90
12477;DHT22;6303;51.504;6.300;2023-03-26T14:57:33;22.80;51.90
12477;DHT22;6303;51.504;6.300;2023-03-26T15:00:30;22.70;51.90
12477;DHT22;6303;51.504;6.300;2023-03-26T15:12:45;22.60;52.00
12477;DHT22;6303;51.504;6.300;2023-03-26T15:15:37;22.60;52.10
12477;DHT22;6303;51.504;6.300;2023-03-26T15:18:54;22.60;52.10
12477;DHT22;6303;51.504;6.300;2023-03-26T15:21:51;22.60;52.00
12477;DHT22;6303;51.504;6.300;2023-03-26T15:27:56;22.50;52.00
12477;DHT22;6303;51.504;6.300;2023-03-26T15:40:08;22.50;52.30
12477;DHT22;6303;51.504;6.300;2023-03-26T15:42:51;22.40;52.30
12477;DHT22;6303;51.504;6.300;2023-03-26T15:45:34;22.40;52.40
12477;DHT22;6303;51.504;6.300;2023-03-26T15:48:30;22.40;52.40
12477;DHT22;6303;51.504;6.300;2023-03-26T15:51:14;22.40;52.60
12477;DHT22;6303;51.504;6.300;2023-03-26T15:53:48;22.30;52.70
12477;DHT22;6303;51.504;6.300;2023-03-26T15:59:30;22.30;52.80
12477;DHT22;6303;51.504;6.300;2023-03-26T16:02:11;22.40;52.80
12477;DHT22;6303;51.504;6.300;2023-03-26T16:04:44;22.40;52.70
12477;DHT22;6303;51.504;6.300;2023-03-26T16:07:32;22.40;52.70
12477;DHT22;6303;51.504;6.300;2023-03-26T16:10:19;22.40;52.80
12477;DHT22;6303;51.504;6.300;2023-03-26T16:15:37;22.40;52.80
12477;DHT22;6303;51.504;6.300;2023-03-26T16:18:32;22.30;52.80
12477;DHT22;6303;51.504;6.300;2023-03-26T16:21:42;22.40;52.80
12477;DHT22;6303;51.504;6.300;2023-03-26T16:24:18;22.30;52.80
12477;DHT22;6303;51.504;6.300;2023-03-26T16:32:43;22.30;52.80
12477;DHT22;6303;51.504;6.300;2023-03-26T16:38:16;22.30;52.80
12477;DHT22;6303;51.504;6.300;2023-03-26T16:40:54;22.30;52.80
12477;DHT22;6303;51.504;6.300;2023-03-26T16:43:36;22.20;52.90
12477;DHT22;6303;51.504;6.300;2023-03-26T16:46:09;22.20;52.80
12477;DHT22;6303;51.504;6.300;2023-03-26T16:48:50;22.20;52.80
12477;DHT22;6303;51.504;6.300;2023-03-26T16:51:24;22.20;52.80
12477;DHT22;6303;51.504;6.300;2023-03-26T16:53:59;22.20;52.80
12477;DHT22;6303;51.504;6.300;2023-03-26T16:56:34;22.20;52.80
12477;DHT22;6303;51.504;6.300;2023-03-26T16:59:07;22.20;52.80
12477;DHT22;6303;51.504;6.300;2023-03-26T17:01:39;22.20;52.90
12477;DHT22;6303;51.504;6.300;2023-03-26T17:04:12;22.10;52.80
12477;DHT22;6303;51.504;6.300;2023-03-26T17:06:59;21.70;52.50
12477;DHT22;6303;51.504;6.300;2023-03-26T17:09:35;22.10;52.80
12477;DHT22;6303;51.504;6.300;2023-03-26T17:12:13;22.10;52.80
12477;DHT22;6303;51.504;6.300;2023-03-26T17:14:58;22.10;52.80
12477;DHT22;6303;51.504;6.300;2023-03-26T17:17:53;22.10;52.80
12477;DHT22;6303;51.504;6.300;2023-03-26T17:20:34;22.10;52.90
12477;DHT22;6303;51.504;6.300;2023-03-26T17:23:11;22.00;52.90
12477;DHT22;6303;51.504;6.300;2023-03-26T17:25:53;22.00;52.80
12477;DHT22;6303;51.504;6.300;2023-03-26T17:28:46;22.00;52.80
12477;DHT22;6303;51.504;6.300;2023-03-26T17:31:21;22.00;52.80
12477;DHT22;6303;51.504;6.300;2023-03-26T17:33:51;22.00;52.80
12477;DHT22;6303;51.504;6.300;2023-03-26T17:36:29;22.00;52.80
12477;DHT22;6303;51.504;6.300;2023-03-26T17:44:39;21.90;52.90
12477;DHT22;6303;51.504;6.300;2023-03-26T17:47:23;21.80;52.90
12477;DHT22;6303;51.504;6.300;2023-03-26T17:49:57;21.80;52.90
12477;DHT22;6303;51.504;6.300;2023-03-26T17:52:47;21.80;52.80
12477;DHT22;6303;51.504;6.300;2023-03-26T17:55:17;21.80;52.90
12477;DHT22;6303;51.504;6.300;2023-03-26T17:57:48;21.80;52.90
12477;DHT22;6303;51.504;6.300;2023-03-26T18:00:20;21.70;52.80
12477;DHT22;6303;51.504;6.300;2023-03-26T18:02:51;21.80;52.90
12477;DHT22;6303;51.504;6.300;2023-03-26T18:05:21;21.70;52.80
12477;DHT22;6303;51.504;6.300;2023-03-26T18:08:17;21.80;52.90
12477;DHT22;6303;51.504;6.300;2023-03-26T18:14:11;21.70;52.80
12477;DHT22;6303;51.504;6.300;2023-03-26T18:16:46;21.70;52.80
12477;DHT22;6303;51.504;6.300;2023-03-26T18:19:15;21.70;52.80
12477;DHT22;6303;51.504;6.300;2023-03-26T18:21:49;21.70;52.80
12477;DHT22;6303;51.504;6.300;2023-03-26T18:24:21;21.60;52.80
12477;DHT22;6303;51.504;6.300;2023-03-26T18:26:54;21.70;52.80